createdAt,value
2022-11-10T00:00:09.302Z,24.70
2022-11-10T00:03:06.236Z,25.40
2022-11-10T00:05:38.178Z,23.90
2022-11-10T00:08:08.859Z,25.80
2022-11-10T00:10:57.458Z,26.40
2022-11-10T00:13:32.211Z,24.20
2022-11-10T00:16:21.698Z,25.40
2022-11-10T00:18:50.958Z,23.20
2022-11-10T00:21:19.397Z,25.50
2022-11-10T00:23:50.294Z,26.00
2022-11-10T00:26:20.390Z,24.10
2022-11-10T00:28:48.760Z,24.40
2022-11-10T00:31:17.693Z,24.40
2022-11-10T00:33:46.070Z,23.80
2022-11-10T00:36:14.416Z,25.20
2022-11-10T00:38:42.761Z,24.60
2022-11-10T00:41:14.860Z,24.90
2022-11-10T00:43:43.225Z,24.80
2022-11-10T00:46:11.782Z,23.50
2022-11-10T00:48:40.490Z,24.20
2022-11-10T00:51:15.660Z,24.00
2022-11-10T00:53:44.040Z,23.00
2022-11-10T00:56:12.433Z,23.80
2022-11-10T00:58:41.064Z,24.10
2022-11-10T01:01:11.193Z,24.80
2022-11-10T01:03:39.901Z,22.10
2022-11-10T01:06:10.360Z,23.10
2022-11-10T01:08:40.102Z,23.20
2022-11-10T01:11:19.640Z,24.10
2022-11-10T01:13:50.671Z,23.80
2022-11-10T01:16:25.400Z,23.40
2022-11-10T01:18:56.435Z,24.90
2022-11-10T01:21:26.276Z,21.80
2022-11-10T01:23:55.320Z,22.70
2022-11-10T01:26:24.746Z,22.30
2022-11-10T01:28:53.204Z,23.10
2022-11-10T01:31:23.019Z,22.40
2022-11-10T01:33:51.399Z,22.00
2022-11-10T01:36:19.823Z,20.90
2022-11-10T01:38:48.116Z,23.20
2022-11-10T01:41:20.878Z,22.60
2022-11-10T01:43:49.575Z,22.90
2022-11-10T01:46:17.915Z,22.00
2022-11-10T01:48:50.735Z,22.40
2022-11-10T01:51:25.061Z,21.20
2022-11-10T01:53:59.000Z,22.50
2022-11-10T01:59:03.679Z,22.00
2022-11-10T02:01:32.051Z,22.70
2022-11-10T02:04:04.150Z,22.40
2022-11-10T02:06:42.643Z,22.60
2022-11-10T02:09:11.996Z,23.40
2022-11-10T02:11:42.382Z,21.30
2022-11-10T02:14:12.416Z,21.80
2022-11-10T02:16:42.723Z,22.20
2022-11-10T02:19:21.422Z,22.50
2022-11-10T02:21:49.739Z,22.50
2022-11-10T02:24:18.229Z,21.10
2022-11-10T02:26:54.784Z,22.00
2022-11-10T02:29:24.498Z,20.90
2022-11-10T02:31:52.961Z,21.50
2022-11-10T02:34:21.270Z,20.60
2022-11-10T02:36:49.623Z,19.50
2022-11-10T02:39:18.081Z,21.70
2022-11-10T02:42:24.326Z,22.50
2022-11-10T02:44:52.889Z,20.90
2022-11-10T02:47:21.331Z,20.80
2022-11-10T02:49:49.746Z,22.70
2022-11-10T02:52:18.130Z,20.30
2022-11-10T02:54:46.498Z,21.70
2022-11-10T02:57:14.919Z,21.80
2022-11-10T02:59:43.300Z,20.00
2022-11-10T03:02:11.709Z,22.60
2022-11-10T03:04:39.974Z,20.80
2022-11-10T03:07:08.382Z,21.60
2022-11-10T03:09:36.676Z,21.40
2022-11-10T03:12:05.170Z,20.60
2022-11-10T03:14:33.500Z,21.70
2022-11-10T03:17:01.868Z,21.60
2022-11-10T03:19:30.215Z,21.50
2022-11-10T03:21:58.604Z,20.00
2022-11-10T03:24:27.079Z,20.30
2022-11-10T03:26:55.401Z,21.30
2022-11-10T03:29:23.853Z,20.70
2022-11-10T03:31:52.155Z,20.80
2022-11-10T03:34:20.543Z,20.20
2022-11-10T03:36:48.887Z,19.60
2022-11-10T03:39:17.281Z,20.60
2022-11-10T03:41:52.491Z,21.50
2022-11-10T03:44:20.897Z,21.90
2022-11-10T03:46:51.735Z,21.10
2022-11-10T03:49:20.411Z,19.50
2022-11-10T03:51:48.737Z,20.30
2022-11-10T03:54:17.104Z,20.20
2022-11-10T03:56:45.451Z,20.00
2022-11-10T03:59:13.913Z,19.50
2022-11-10T04:01:42.404Z,20.80
2022-11-10T04:04:31.426Z,19.40
2022-11-10T04:07:18.719Z,20.50
2022-11-10T04:09:47.054Z,21.00
2022-11-10T04:12:34.195Z,19.80
2022-11-10T04:15:21.940Z,20.20
2022-11-10T04:17:51.253Z,20.40
2022-11-10T04:20:19.649Z,20.70
2022-11-10T04:23:06.817Z,24.40
2022-11-10T04:25:55.075Z,19.90
2022-11-10T04:28:23.478Z,20.30
2022-11-10T04:30:51.816Z,20.00
2022-11-10T04:33:20.406Z,19.00
2022-11-10T04:35:49.078Z,17.50
2022-11-10T04:38:18.122Z,18.40
2022-11-10T04:40:46.525Z,20.00
2022-11-10T04:43:14.905Z,18.90
2022-11-10T04:45:44.223Z,18.30
2022-11-10T04:48:12.703Z,17.90
2022-11-10T04:50:41.032Z,18.00
2022-11-10T04:53:09.901Z,16.90
2022-11-10T04:55:43.631Z,17.10
2022-11-10T04:58:13.515Z,17.50
2022-11-10T05:00:42.831Z,18.80
2022-11-10T05:03:13.090Z,16.30
2022-11-10T05:05:42.267Z,17.60
2022-11-10T05:08:11.149Z,17.10
2022-11-10T05:10:39.518Z,16.30
2022-11-10T05:13:08.483Z,16.80
2022-11-10T05:15:36.852Z,16.10
2022-11-10T05:18:05.237Z,16.00
2022-11-10T05:20:33.665Z,15.80
2022-11-10T05:23:20.683Z,15.80
2022-11-10T05:25:49.402Z,15.50
2022-11-10T05:28:17.838Z,15.60
2022-11-10T05:30:46.573Z,16.20
2022-11-10T05:33:15.091Z,14.40
2022-11-10T05:35:44.577Z,16.20
2022-11-10T05:38:13.080Z,15.40
2022-11-10T05:40:41.602Z,17.30
2022-11-10T05:43:11.291Z,15.00
2022-11-10T05:45:39.760Z,15.00
2022-11-10T05:48:08.239Z,16.10
2022-11-10T05:50:36.616Z,14.30
2022-11-10T05:53:05.129Z,14.70
2022-11-10T05:55:33.418Z,15.10
2022-11-10T05:58:01.963Z,13.50
2022-11-10T06:00:31.843Z,14.10
2022-11-10T06:03:03.748Z,13.90
2022-11-10T06:05:35.332Z,12.90
2022-11-10T06:08:05.900Z,12.50
2022-11-10T06:10:35.799Z,13.30
2022-11-10T06:13:05.217Z,13.00
2022-11-10T06:15:33.940Z,12.60
2022-11-10T06:18:02.440Z,11.90
2022-11-10T06:20:30.891Z,12.00
2022-11-10T06:23:07.317Z,12.20
2022-11-10T06:25:37.656Z,11.70
2022-11-10T06:28:07.744Z,12.00
2022-11-10T06:30:37.983Z,11.60
2022-11-10T06:33:06.433Z,11.30
2022-11-10T06:35:35.024Z,9.90
2022-11-10T06:38:06.270Z,10.70
2022-11-10T06:41:07.914Z,11.30
2022-11-10T06:43:36.375Z,10.30
2022-11-10T06:46:04.922Z,10.60
2022-11-10T06:48:34.164Z,10.50
2022-11-10T06:51:03.695Z,10.50
2022-11-10T06:53:33.319Z,9.90
2022-11-10T06:56:02.104Z,10.10
2022-11-10T06:58:30.500Z,9.90
2022-11-10T07:01:02.391Z,9.60
2022-11-10T07:03:30.738Z,9.40
2022-11-10T07:05:59.611Z,9.40
2022-11-10T07:08:27.930Z,9.00
2022-11-10T07:10:56.408Z,9.30
2022-11-10T07:13:25.196Z,9.10
2022-11-10T07:15:53.898Z,9.80
2022-11-10T07:18:23.688Z,8.60
2022-11-10T07:20:52.061Z,8.40
2022-11-10T07:23:20.633Z,10.20
2022-11-10T07:25:49.362Z,10.70
2022-11-10T07:28:17.851Z,9.80
2022-11-10T07:30:46.154Z,9.50
2022-11-10T07:33:15.557Z,9.00
2022-11-10T07:35:44.806Z,8.90
2022-11-10T07:38:15.142Z,8.60
2022-11-10T07:40:43.668Z,9.50
2022-11-10T07:43:12.320Z,8.40
2022-11-10T07:45:40.777Z,9.80
2022-11-10T07:48:10.303Z,8.60
2022-11-10T07:50:38.769Z,9.00
2022-11-10T07:53:15.940Z,8.40
2022-11-10T07:55:45.744Z,8.20
2022-11-10T07:58:17.829Z,8.00
2022-11-10T08:00:47.271Z,8.50
2022-11-10T08:03:21.374Z,8.30
2022-11-10T08:05:50.149Z,8.30
2022-11-10T08:08:19.243Z,8.30
2022-11-10T08:10:47.701Z,8.70
2022-11-10T08:13:16.163Z,8.90
2022-11-10T08:15:44.692Z,7.50
2022-11-10T08:18:22.412Z,8.10
2022-11-10T08:20:51.055Z,8.10
2022-11-10T08:23:19.749Z,7.40
2022-11-10T08:25:48.372Z,7.50
2022-11-10T08:28:18.127Z,7.60
2022-11-10T08:30:48.212Z,7.10
2022-11-10T08:33:20.291Z,7.70
2022-11-10T08:35:51.611Z,7.60
2022-11-10T08:38:24.933Z,6.60
2022-11-10T08:40:57.824Z,8.20
2022-11-10T08:43:36.177Z,6.00
2022-11-10T08:46:09.678Z,5.60
2022-11-10T08:49:00.893Z,6.40
2022-11-10T08:51:39.191Z,5.80
2022-11-10T08:54:07.941Z,5.40
2022-11-10T08:56:42.627Z,5.60
2022-11-10T08:59:11.396Z,5.20
2022-11-10T09:01:39.907Z,5.50
2022-11-10T09:04:08.431Z,5.70
2022-11-10T09:06:36.930Z,5.50
2022-11-10T09:09:27.617Z,5.30
2022-11-10T09:11:55.980Z,5.40
2022-11-10T09:14:24.389Z,5.20
2022-11-10T09:16:52.875Z,4.90
2022-11-10T09:19:21.243Z,5.80
2022-11-10T09:21:49.604Z,4.80
2022-11-10T09:24:18.135Z,4.80
2022-11-10T09:26:47.927Z,5.50
2022-11-10T09:29:16.332Z,5.30
2022-11-10T09:31:45.506Z,4.90
2022-11-10T09:34:14.058Z,4.20
2022-11-10T09:36:43.312Z,3.90
2022-11-10T09:39:13.387Z,3.60
2022-11-10T09:41:47.873Z,3.60
2022-11-10T09:44:37.018Z,4.20
2022-11-10T09:47:50.744Z,3.80
2022-11-10T09:50:22.414Z,3.60
2022-11-10T09:52:54.877Z,3.20
2022-11-10T09:56:02.820Z,3.20
2022-11-10T09:58:43.719Z,3.80
2022-11-10T10:01:40.789Z,3.60
2022-11-10T10:04:31.394Z,3.10
2022-11-10T10:07:27.184Z,3.50
2022-11-10T10:10:37.254Z,3.00
2022-11-10T10:13:21.086Z,3.20
2022-11-10T10:16:18.738Z,2.60
2022-11-10T10:19:21.462Z,2.80
2022-11-10T10:22:09.034Z,2.90
2022-11-10T10:24:38.647Z,3.20
2022-11-10T10:27:12.591Z,3.40
2022-11-10T10:29:45.896Z,2.60
2022-11-10T10:32:16.378Z,2.80
2022-11-10T10:34:46.221Z,3.30
2022-11-10T10:37:23.945Z,3.30
2022-11-10T10:40:19.563Z,2.80
2022-11-10T10:42:48.338Z,3.70
2022-11-10T10:45:29.142Z,2.90
2022-11-10T10:47:58.153Z,3.00
2022-11-10T10:50:36.166Z,2.60
2022-11-10T10:53:23.165Z,2.60
2022-11-10T10:56:01.596Z,2.00
2022-11-10T10:58:56.501Z,2.60
2022-11-10T11:01:38.012Z,3.20
2022-11-10T11:04:31.022Z,2.50
2022-11-10T11:07:04.975Z,2.30
2022-11-10T11:09:44.676Z,3.20
2022-11-10T11:12:22.331Z,2.00
2022-11-10T11:15:29.626Z,2.00
2022-11-10T11:18:03.883Z,2.30
2022-11-10T11:20:53.227Z,1.70
2022-11-10T11:23:49.725Z,1.70
2022-11-10T11:27:06.385Z,2.00
2022-11-10T11:29:59.734Z,2.00
2022-11-10T11:32:51.759Z,2.60
2022-11-10T11:35:38.643Z,1.90
2022-11-10T11:38:16.413Z,2.00
2022-11-10T11:41:13.674Z,2.00
2022-11-10T11:44:01.719Z,1.50
2022-11-10T11:46:49.620Z,1.80
2022-11-10T11:49:53.993Z,1.90
2022-11-10T11:52:36.658Z,1.70
2022-11-10T11:55:27.359Z,2.00
2022-11-10T11:58:25.686Z,2.10
2022-11-10T12:01:20.560Z,2.50
2022-11-10T12:04:08.318Z,1.70
2022-11-10T12:06:51.103Z,2.30
2022-11-10T12:10:13.640Z,1.90
2022-11-10T12:13:06.351Z,1.90
2022-11-10T12:15:47.076Z,1.40
2022-11-10T12:18:32.932Z,1.30
2022-11-10T12:21:18.637Z,1.50
2022-11-10T12:24:25.513Z,2.00
2022-11-10T12:27:14.951Z,1.60
2022-11-10T12:29:50.965Z,1.60
2022-11-10T12:32:47.049Z,1.60
2022-11-10T12:35:26.869Z,2.00
2022-11-10T12:38:02.164Z,1.60
2022-11-10T12:40:42.141Z,1.60
2022-11-10T12:43:26.055Z,2.20
2022-11-10T12:46:03.923Z,1.70
2022-11-10T12:49:11.460Z,1.40
2022-11-10T12:51:49.918Z,1.50
2022-11-10T12:54:21.086Z,1.90
2022-11-10T12:57:05.751Z,2.30
2022-11-10T12:59:40.134Z,1.60
2022-11-10T13:02:33.427Z,1.40
2022-11-10T13:05:45.581Z,2.00
2022-11-10T13:08:27.646Z,1.40
2022-11-10T13:11:06.944Z,1.50
2022-11-10T13:13:46.377Z,1.40
2022-11-10T13:16:40.805Z,1.60
2022-11-10T13:21:53.871Z,1.90
2022-11-10T13:24:31.444Z,1.50
2022-11-10T13:27:00.910Z,2.00
2022-11-10T13:29:47.789Z,1.70
2022-11-10T13:32:30.963Z,1.70
2022-11-10T13:35:30.603Z,1.80
2022-11-10T13:37:59.456Z,2.00
2022-11-10T13:40:34.991Z,2.00
2022-11-10T13:43:03.752Z,1.70
2022-11-10T13:45:42.362Z,1.90
2022-11-10T13:48:13.529Z,2.10
2022-11-10T13:51:04.862Z,1.60
2022-11-10T13:53:35.950Z,1.70
2022-11-10T13:56:32.527Z,1.60
2022-11-10T13:59:01.058Z,1.90
2022-11-10T14:01:30.780Z,1.70
2022-11-10T14:04:06.405Z,1.90
2022-11-10T14:06:41.132Z,1.60
2022-11-10T14:09:29.356Z,1.60
2022-11-10T14:12:04.134Z,1.50
2022-11-10T14:14:52.012Z,1.80
2022-11-10T14:17:26.279Z,1.30
2022-11-10T14:19:54.833Z,1.90
2022-11-10T14:22:43.495Z,1.70
2022-11-10T14:25:28.126Z,1.70
2022-11-10T14:27:58.350Z,1.90
2022-11-10T14:30:33.922Z,2.60
2022-11-10T14:33:10.808Z,2.70
2022-11-10T14:35:53.514Z,2.10
2022-11-10T14:38:26.547Z,2.50
2022-11-10T14:41:00.629Z,2.70
2022-11-10T14:46:08.522Z,2.70
2022-11-10T14:48:39.141Z,3.20
2022-11-10T14:51:17.365Z,2.10
2022-11-10T14:53:57.398Z,2.30
2022-11-10T14:56:32.423Z,1.90
2022-11-10T14:59:05.046Z,2.30
2022-11-10T15:01:37.246Z,2.00
2022-11-10T15:04:32.258Z,2.00
2022-11-10T15:07:01.254Z,2.10
2022-11-10T15:09:32.429Z,2.40
2022-11-10T15:12:00.885Z,2.20
2022-11-10T15:14:35.666Z,2.50
2022-11-10T15:17:11.670Z,2.40
2022-11-10T15:19:48.933Z,2.50
2022-11-10T15:22:22.427Z,2.20
2022-11-10T15:24:59.924Z,2.10
2022-11-10T15:27:33.859Z,2.60
2022-11-10T15:32:58.001Z,4.00
2022-11-10T15:35:33.492Z,2.70
2022-11-10T15:38:19.634Z,3.90
2022-11-10T15:41:06.626Z,3.10
2022-11-10T15:43:38.848Z,4.80
2022-11-10T15:46:20.069Z,5.60
2022-11-10T15:48:57.763Z,3.60
2022-11-10T15:51:30.783Z,5.20
2022-11-10T15:54:02.248Z,5.00
2022-11-10T15:56:33.807Z,5.80
2022-11-10T15:59:05.649Z,5.60
2022-11-10T16:01:38.800Z,7.70
2022-11-10T16:04:14.353Z,10.60
2022-11-10T16:06:51.932Z,14.00
2022-11-10T16:09:25.539Z,9.30
2022-11-10T16:11:58.532Z,10.90
2022-11-10T16:14:30.099Z,12.00
2022-11-10T16:17:02.504Z,11.70
2022-11-10T16:19:34.762Z,9.40
2022-11-10T16:22:11.762Z,9.90
2022-11-10T16:24:45.261Z,9.30
2022-11-10T16:27:17.854Z,9.90
2022-11-10T16:29:51.989Z,9.50
2022-11-10T16:34:55.504Z,13.40
2022-11-10T16:37:31.721Z,12.30
2022-11-10T16:40:17.628Z,14.80
2022-11-10T16:42:49.689Z,10.50
2022-11-10T16:45:24.263Z,17.50
2022-11-10T16:47:58.666Z,14.60
2022-11-10T16:50:32.653Z,11.80
2022-11-10T16:55:43.650Z,16.40
2022-11-10T16:58:12.278Z,14.50
2022-11-10T17:00:42.167Z,12.70
2022-11-10T17:03:18.641Z,11.30
2022-11-10T17:05:48.741Z,10.40
2022-11-10T17:08:26.395Z,8.20
2022-11-10T17:10:57.229Z,8.30
2022-11-10T17:13:26.616Z,11.10
2022-11-10T17:16:20.287Z,10.30
2022-11-10T17:18:50.191Z,7.60
2022-11-10T17:21:19.922Z,7.90
2022-11-10T17:23:49.389Z,8.00
2022-11-10T17:26:20.262Z,7.80
2022-11-10T17:28:49.196Z,7.20
2022-11-10T17:31:17.788Z,8.10
2022-11-10T17:33:47.577Z,14.00
2022-11-10T17:36:21.717Z,9.30
2022-11-10T17:38:52.602Z,9.00
2022-11-10T17:41:24.238Z,7.60
2022-11-10T17:43:53.000Z,8.40
2022-11-10T17:46:22.048Z,10.60
2022-11-10T17:48:51.140Z,8.10
2022-11-10T17:51:22.839Z,8.50
2022-11-10T17:53:52.395Z,7.60
2022-11-10T17:56:21.528Z,6.80
2022-11-10T17:58:50.728Z,7.90
2022-11-10T18:01:25.123Z,7.60
2022-11-10T18:03:54.121Z,8.00
2022-11-10T18:06:23.026Z,7.30
2022-11-10T18:08:52.342Z,7.50
2022-11-10T18:11:21.808Z,6.90
2022-11-10T18:13:53.048Z,7.10
2022-11-10T18:16:23.429Z,6.70
2022-11-10T18:18:53.643Z,6.40
2022-11-10T18:21:22.065Z,6.20
2022-11-10T18:23:50.848Z,6.80
2022-11-10T18:26:24.860Z,6.50
2022-11-10T18:28:53.658Z,6.40
2022-11-10T18:31:22.421Z,6.90
2022-11-10T18:33:54.868Z,7.50
2022-11-10T18:36:27.285Z,7.70
2022-11-10T18:38:56.771Z,6.50
2022-11-10T18:41:49.767Z,7.80
2022-11-10T18:44:24.218Z,7.40
2022-11-10T18:46:54.499Z,7.10
2022-11-10T18:49:24.766Z,7.70
2022-11-10T18:51:53.723Z,7.90
2022-11-10T18:54:23.409Z,7.90
2022-11-10T18:56:52.565Z,8.20
2022-11-10T18:59:21.271Z,8.00
2022-11-10T19:01:51.012Z,7.90
2022-11-10T19:04:20.680Z,7.40
2022-11-10T19:06:50.012Z,8.10
2022-11-10T19:09:19.588Z,8.50
2022-11-10T19:11:48.608Z,8.10
2022-11-10T19:14:26.024Z,8.60
2022-11-10T19:16:56.219Z,9.20
2022-11-10T19:19:26.319Z,9.40
2022-11-10T19:21:55.572Z,10.40
2022-11-10T19:24:28.167Z,10.70
2022-11-10T19:26:57.939Z,9.40
2022-11-10T19:29:27.001Z,10.60
2022-11-10T19:31:56.313Z,10.30
2022-11-10T19:34:25.607Z,10.40
2022-11-10T19:36:55.101Z,11.10
2022-11-10T19:39:24.464Z,10.10
2022-11-10T19:41:54.628Z,11.30
2022-11-10T19:44:24.150Z,11.10
2022-11-10T19:46:53.002Z,12.70
2022-11-10T19:49:23.099Z,11.90
2022-11-10T19:51:52.539Z,10.40
2022-11-10T19:54:22.559Z,10.10
2022-11-10T19:56:52.164Z,10.00
2022-11-10T19:59:21.506Z,11.20
2022-11-10T20:01:52.974Z,10.40
2022-11-10T20:04:22.744Z,10.50
2022-11-10T20:07:12.340Z,11.80
2022-11-10T20:09:44.466Z,9.70
2022-11-10T20:12:14.304Z,10.40
2022-11-10T20:14:43.211Z,9.60
2022-11-10T20:17:13.997Z,9.70
2022-11-10T20:19:42.560Z,10.00
2022-11-10T20:22:13.626Z,11.30
2022-11-10T20:24:49.925Z,10.30
2022-11-10T20:27:20.716Z,9.20
2022-11-10T20:29:50.473Z,10.80
2022-11-10T20:32:22.815Z,10.00
2022-11-10T20:34:52.637Z,9.10
2022-11-10T20:37:21.440Z,10.80
2022-11-10T20:40:02.606Z,10.10
2022-11-10T20:42:32.522Z,9.90
2022-11-10T20:45:01.723Z,10.00
2022-11-10T20:47:30.508Z,11.60
2022-11-10T20:50:00.067Z,11.70
2022-11-10T20:52:28.516Z,13.60
2022-11-10T20:54:58.646Z,13.90
2022-11-10T20:57:29.277Z,14.70
2022-11-10T20:59:57.654Z,16.90
2022-11-10T21:02:26.078Z,14.10
2022-11-10T21:04:55.133Z,13.80
2022-11-10T21:07:23.647Z,11.90
2022-11-10T21:09:52.829Z,11.60
2022-11-10T21:12:41.729Z,11.20
2022-11-10T21:15:11.457Z,12.10
2022-11-10T21:17:43.942Z,14.40
2022-11-10T21:20:14.164Z,16.20
2022-11-10T21:22:42.642Z,13.50
2022-11-10T21:25:11.295Z,13.80
2022-11-10T21:27:39.657Z,11.70
2022-11-10T21:30:13.012Z,12.60
2022-11-10T21:32:42.705Z,13.50
2022-11-10T21:35:11.171Z,11.90
2022-11-10T21:37:39.733Z,11.90
2022-11-10T21:40:38.292Z,11.50
2022-11-10T21:43:06.939Z,12.00
2022-11-10T21:45:35.358Z,12.30
2022-11-10T21:48:04.450Z,11.20
2022-11-10T21:50:32.796Z,11.60
2022-11-10T21:53:01.201Z,11.10
2022-11-10T21:55:29.594Z,11.50
2022-11-10T21:58:00.907Z,11.40
2022-11-10T22:00:29.510Z,10.40
2022-11-10T22:03:02.929Z,10.60
2022-11-10T22:05:31.370Z,8.00
2022-11-10T22:07:59.717Z,10.80
2022-11-10T22:10:46.776Z,11.10
2022-11-10T22:13:35.928Z,11.20
2022-11-10T22:16:41.639Z,10.40
2022-11-10T22:19:10.204Z,11.50
2022-11-10T22:21:38.626Z,10.50
2022-11-10T22:24:27.118Z,11.00
2022-11-10T22:27:00.676Z,10.10
2022-11-10T22:29:32.285Z,13.50
2022-11-10T22:32:02.159Z,12.30
2022-11-10T22:34:33.584Z,11.50
2022-11-10T22:37:02.277Z,11.10
2022-11-10T22:39:49.479Z,10.50
2022-11-10T22:43:03.666Z,9.40
2022-11-10T22:45:32.164Z,10.00
2022-11-10T22:48:19.293Z,9.40
2022-11-10T22:50:57.813Z,8.70
2022-11-10T22:53:26.940Z,9.30
2022-11-10T22:56:00.979Z,9.00
2022-11-10T22:58:29.363Z,8.40
2022-11-10T23:01:06.308Z,8.50
2022-11-10T23:03:35.714Z,8.80
2022-11-10T23:06:05.068Z,10.70
2022-11-10T23:08:34.380Z,8.90
2022-11-10T23:11:06.284Z,8.10
2022-11-10T23:13:36.143Z,7.50
2022-11-10T23:16:08.340Z,8.50
2022-11-10T23:18:38.701Z,7.30
2022-11-10T23:21:10.154Z,7.90
2022-11-10T23:23:40.441Z,7.30
2022-11-10T23:26:18.750Z,7.50
2022-11-10T23:28:47.868Z,7.70
2022-11-10T23:31:22.091Z,6.70
2022-11-10T23:33:53.412Z,7.50
2022-11-10T23:36:23.759Z,8.80
2022-11-10T23:38:52.570Z,8.30
2022-11-10T23:41:26.985Z,9.20
2022-11-10T23:43:56.507Z,7.90
2022-11-10T23:46:25.419Z,8.10
2022-11-10T23:48:53.812Z,7.10
2022-11-10T23:51:22.925Z,7.20
2022-11-10T23:53:51.685Z,8.20
2022-11-10T23:56:20.137Z,7.10
2022-11-10T23:58:48.513Z,7.00
